This is the latest recevied weather packets stored in our database for station/object VE3DVC. If no packets are shown the sender has not sent any weather packets the latest 10 day(s).
| Time | Temp. | Humidity | Pressure | Rain* | Wind** | Luminosity | Snow |
|---|---|---|---|---|---|---|---|
| 1777349541 | 15° C | 65% | 1012.3 hPa | 0 mm | - | - | - |
| 1777348821 | 15° C | 66% | 1012.4 hPa | 0 mm | - | - | - |
| 1777348101 | 15° C | 66% | 1012.5 hPa | 0 mm | - | - | - |
| 1777347381 | 15° C | 65% | 1012.7 hPa | 0 mm | - | - | - |
| 1777346662 | 15° C | 65% | 1012.9 hPa | 0 mm | - | - | - |
| 1777345941 | 15° C | 67% | 1012.9 hPa | 0 mm | - | - | - |
| 1777345221 | 15° C | 61% | 1012.6 hPa | 0 mm | - | - | - |
| 1777344501 | 15.56° C | 62% | 1012.4 hPa | 0 mm | - | - | - |
| 1777343782 | 15.56° C | 60% | 1012.6 hPa | 0 mm | - | - | - |
| 1777343061 | 15.56° C | 60% | 1012.7 hPa | 0 mm | - | - | - |
| 1777342341 | 15.56° C | 63% | 1013.3 hPa | 0 mm | - | - | - |
| 1777340247 | 15° C | 71% | 1013.9 hPa | 0 mm | - | - | - |
| 1777339526 | 15° C | 70% | 1014.4 hPa | 0 mm | - | - | - |
| 1777338806 | 15° C | 71% | 1014.5 hPa | 0 mm | - | - | - |
| 1777338086 | 15° C | 71% | 1014.6 hPa | 0 mm | - | - | - |
| 1777337366 | 15.56° C | 69% | 1014.8 hPa | 0 mm | - | - | - |
| 1777336646 | 16.11° C | 68% | 1015 hPa | 0 mm | - | - | - |
| 1777335926 | 16.67° C | 67% | 1015.3 hPa | 0 mm | - | - | - |
| 1777335206 | 17.22° C | 64% | 1015.5 hPa | 0 mm | - | - | - |
| 1777334486 | 17.78° C | 62% | 1015.6 hPa | 0 mm | - | - | - |
| 1777333766 | 18.33° C | 60% | 1015.7 hPa | 0 mm | - | - | - |
| 1777332582 | 19.44° C | 57% | 1016.1 hPa | 0 mm | - | - | - |
| 1777331862 | 20° C | 53% | 1016.1 hPa | 0 mm | - | - | - |
| 1777331142 | 20.56° C | 46% | 1016.2 hPa | 0 mm | - | - | - |
| 1777330421 | 20.56° C | 44% | 1016.4 hPa | 0 mm | - | - | - |
* Rain latest hour (hover to see other rain measurements)
** Current wind speed in m/s (hover to see current wind gust speed)